
Distance (Route):
Temperature : 20.9°C
Humidity : 4.1%
Pressure : 828.4hPa| Receiver | Frames | First received | Last received |
|---|---|---|---|
| AUTORXJP | 178 | 2026-09-03 12:13:51 | 2026-09-03 13:48:07 |
| Receiver | Date | Latitude | Longitude | Direction | Speed | Altitude | Climb | Temperature | Humidity | Pressure | Voltage | Killtimer | Uptime | BKT | XDATA |
|---|---|---|---|---|---|---|---|---|---|---|---|---|---|---|---|
| AUTORXJP | 2026-09-03 13:48:07 | 43.17057 | 4.90684 | 179° | 27km/h | 1874m | -4.5m/s | 20.9°C | 4.1% | 828.4hPa | 0V | 00:00:00 | 00:00:00 | 00:00:00 | |
| AUTORXJP | 2026-09-03 13:47:36 | 43.17101 | 4.90686 | 181° | 33km/h | 1899m | -2.6m/s | 20.8°C | 4.9% | 826.0hPa | 0V | 00:00:00 | 00:00:00 | 00:00:00 | |
| AUTORXJP | 2026-09-03 13:47:05 | 43.17520 | 4.90749 | 192° | 31km/h | 2120m | -4.2m/s | 19.3°C | 8.5% | 804.8hPa | 0V | 00:00:00 | 00:00:00 | 00:00:00 | |
| AUTORXJP | 2026-09-03 13:46:34 | 43.17681 | 4.90791 | 189° | 33km/h | 2203m | -4.3m/s | 18.6°C | 11.8% | 797.1hPa | 0V | 00:00:00 | 00:00:00 | 00:00:00 | |
| AUTORXJP | 2026-09-03 13:46:03 | 43.17883 | 4.90819 | 189° | 38km/h | 2298m | -4.5m/s | 17.6°C | 27.6% | 788.3hPa | 0V | 00:00:00 | 00:00:00 | 00:00:00 | |
| AUTORXJP | 2026-09-03 13:45:32 | 43.18183 | 4.90857 | 181° | 42km/h | 2427m | -3.1m/s | 16.4°C | 34.8% | 776.4hPa | 0V | 00:00:00 | 00:00:00 | 00:00:00 | |
| AUTORXJP | 2026-09-03 13:45:01 | 43.18479 | 4.90843 | 173° | 35km/h | 2559m | -3.2m/s | 16.5°C | 27.9% | 764.3hPa | 0V | 00:00:00 | 00:00:00 | 00:00:00 | |
| AUTORXJP | 2026-09-03 13:44:30 | 43.18754 | 4.90779 | 165° | 33km/h | 2690m | -4.0m/s | 15.8°C | 28.7% | 752.4hPa | 0V | 00:00:00 | 00:00:00 | 00:00:00 | |
| AUTORXJP | 2026-09-03 13:43:59 | 43.19011 | 4.90662 | 160° | 37km/h | 2822m | -3.8m/s | 14.9°C | 29.1% | 740.9hPa | 0V | 00:00:00 | 00:00:00 | 00:00:00 | |
| AUTORXJP | 2026-09-03 13:43:28 | 43.19273 | 4.90528 | 157° | 33km/h | 2949m | -3.0m/s | 13.8°C | 32.4% | 729.5hPa | 0V | 00:00:00 | 00:00:00 | 00:00:00 | |
| AUTORXJP | 2026-09-03 13:42:57 | 43.19513 | 4.90375 | 153° | 33km/h | 3075m | -3.2m/s | 12.6°C | 35.6% | 718.5hPa | 0V | 00:00:00 | 00:00:00 | 00:00:00 | |
| AUTORXJP | 2026-09-03 13:42:25 | 43.19734 | 4.90179 | 143° | 33km/h | 3210m | -4.9m/s | 11.5°C | 35.4% | 707.2hPa | 0V | 00:00:00 | 00:00:00 | 00:00:00 | |
| AUTORXJP | 2026-09-03 13:41:55 | 43.19939 | 4.89982 | 149° | 27km/h | 3349m | -4.0m/s | 10.6°C | 32.7% | 695.4hPa | 0V | 00:00:00 | 00:00:00 | 00:00:00 | |
| AUTORXJP | 2026-09-03 13:41:23 | 43.20142 | 4.89860 | 163° | 26km/h | 3503m | -4.6m/s | 9.4°C | 27.4% | 682.6hPa | 0V | 00:00:00 | 00:00:00 | 00:00:00 | |
| AUTORXJP | 2026-09-03 13:40:52 | 43.20378 | 4.89844 | 176° | 31km/h | 3666m | -4.2m/s | 9.9°C | 3.9% | 669.5hPa | 0V | 00:00:00 | 00:00:00 | 00:00:00 | |
| AUTORXJP | 2026-09-03 13:40:21 | 43.20653 | 4.89792 | 167° | 35km/h | 3827m | -4.8m/s | 9.4°C | 4.4% | 656.2hPa | 0V | 00:00:00 | 00:00:00 | 00:00:00 | |
| AUTORXJP | 2026-09-03 13:39:50 | 43.20925 | 4.89693 | 162° | 35km/h | 3991m | -4.1m/s | 8.6°C | 6.8% | 643.3hPa | 0V | 00:00:00 | 00:00:00 | 00:00:00 | |
| AUTORXJP | 2026-09-03 13:39:19 | 43.21184 | 4.89550 | 151° | 35km/h | 4152m | -4.8m/s | 7.2°C | 22.9% | 630.8hPa | 0V | 00:00:00 | 00:00:00 | 00:00:00 | |
| AUTORXJP | 2026-09-03 13:38:48 | 43.21430 | 4.89387 | 156° | 33km/h | 4313m | -3.7m/s | 5.6°C | 31.8% | 618.5hPa | 0V | 00:00:00 | 00:00:00 | 00:00:00 | |
| AUTORXJP | 2026-09-03 13:38:17 | 43.21671 | 4.89225 | 155° | 33km/h | 4467m | -3.2m/s | 4.1°C | 34.6% | 606.8hPa | 0V | 00:00:00 | 00:00:00 | 00:00:00 | |
| AUTORXJP | 2026-09-03 13:37:46 | 43.21894 | 4.89063 | 145° | 31km/h | 4614m | -4.5m/s | 3.0°C | 33.3% | 595.7hPa | 0V | 00:00:00 | 00:00:00 | 00:00:00 | |
| AUTORXJP | 2026-09-03 13:37:15 | 43.22104 | 4.88899 | 144° | 31km/h | 4760m | -5.1m/s | 2.0°C | 33.1% | 585.1hPa | 0V | 00:00:00 | 00:00:00 | 00:00:00 | |
| AUTORXJP | 2026-09-03 13:36:43 | 43.22294 | 4.88736 | 149° | 27km/h | 4905m | -3.5m/s | 1.0°C | 34.1% | 574.9hPa | 0V | 00:00:00 | 00:00:00 | 00:00:00 | |
| AUTORXJP | 2026-09-03 13:36:12 | 43.22469 | 4.88584 | 146° | 26km/h | 5039m | -2.2m/s | -0.1°C | 39.1% | 565.2hPa | 0V | 00:00:00 | 00:00:00 | 00:00:00 | |
| AUTORXJP | 2026-09-03 13:35:41 | 43.22641 | 4.88422 | 145° | 26km/h | 5176m | -3.1m/s | -1.3°C | 35.7% | 555.7hPa | 0V | 00:00:00 | 00:00:00 | 00:00:00 | |
| AUTORXJP | 2026-09-03 13:35:10 | 43.22836 | 4.88256 | 155° | 31km/h | 5308m | -3.0m/s | -2.1°C | 35.6% | 546.0hPa | 0V | 00:00:00 | 00:00:00 | 00:00:00 | |
| AUTORXJP | 2026-09-03 13:34:39 | 43.23064 | 4.88121 | 147° | 27km/h | 5441m | -3.6m/s | -2.7°C | 29.3% | 537.1hPa | 0V | 00:00:00 | 00:00:00 | 00:00:00 | |
| AUTORXJP | 2026-09-03 13:34:08 | 43.23237 | 4.87959 | 141° | 29km/h | 5578m | -2.9m/s | -3.2°C | 29.3% | 528.0hPa | 0V | 00:00:00 | 00:00:00 | 00:00:00 | |
| AUTORXJP | 2026-09-03 13:33:37 | 43.23411 | 4.87762 | 140° | 29km/h | 5706m | -3.1m/s | -4.0°C | 27.5% | 519.2hPa | 0V | 00:00:00 | 00:00:00 | 00:00:00 | |
| AUTORXJP | 2026-09-03 13:33:06 | 43.23600 | 4.87550 | 143° | 29km/h | 5838m | -3.0m/s | -5.1°C | 27.8% | 510.5hPa | 0V | 00:00:00 | 00:00:00 | 00:00:00 | |
| AUTORXJP | 2026-09-03 13:32:04 | 43.24020 | 4.87119 | 142° | 35km/h | 6115m | -2.4m/s | -7.6°C | 28.9% | 492.7hPa | 0V | 00:00:00 | 00:00:00 | 00:00:00 | |
| AUTORXJP | 2026-09-03 13:31:33 | 43.24230 | 4.86885 | 142° | 37km/h | 6260m | -4.1m/s | -8.9°C | 31.7% | 483.7hPa | 0V | 00:00:00 | 00:00:00 | 00:00:00 | |
| AUTORXJP | 2026-09-03 13:31:02 | 43.24451 | 4.86635 | 136° | 37km/h | 6408m | -3.2m/s | -9.6°C | 25.9% | 474.5hPa | 0V | 00:00:00 | 00:00:00 | 00:00:00 | |
| AUTORXJP | 2026-09-03 13:30:31 | 43.24681 | 4.86336 | 132° | 38km/h | 6559m | -4.0m/s | -10.6°C | 24.1% | 465.2hPa | 0V | 00:00:00 | 00:00:00 | 00:00:00 | |
| AUTORXJP | 2026-09-03 13:29:59 | 43.24912 | 4.86058 | 144° | 38km/h | 6715m | -3.4m/s | -12.0°C | 25.4% | 455.9hPa | 0V | 00:00:00 | 00:00:00 | 00:00:00 | |
| AUTORXJP | 2026-09-03 13:29:28 | 43.25168 | 4.85787 | 147° | 40km/h | 6872m | -4.5m/s | -13.4°C | 25.4% | 446.4hPa | 0V | 00:00:00 | 00:00:00 | 00:00:00 | |
| AUTORXJP | 2026-09-03 13:28:57 | 43.25449 | 4.85564 | 162° | 40km/h | 7034m | -4.6m/s | -14.1°C | 14.6% | 436.8hPa | 0V | 00:00:00 | 00:00:00 | 00:00:00 | |
| AUTORXJP | 2026-09-03 13:28:26 | 43.25767 | 4.85436 | 167° | 42km/h | 7210m | -4.6m/s | -15.3°C | 20.5% | 426.8hPa | 0V | 00:00:00 | 00:00:00 | 00:00:00 | |
| AUTORXJP | 2026-09-03 13:27:55 | 43.26103 | 4.85313 | 173° | 42km/h | 7384m | -4.4m/s | -16.5°C | 23.4% | 417.0hPa | 0V | 00:00:00 | 00:00:00 | 00:00:00 | |
| AUTORXJP | 2026-09-03 13:27:24 | 43.26415 | 4.85215 | 174° | 38km/h | 7559m | -5.1m/s | -17.8°C | 15.5% | 407.2hPa | 0V | 00:00:00 | 00:00:00 | 00:00:00 | |
| AUTORXJP | 2026-09-03 13:26:53 | 43.26717 | 4.85142 | 167° | 33km/h | 7742m | -5.2m/s | -19.0°C | 11.9% | 397.6hPa | 0V | 00:00:00 | 00:00:00 | 00:00:00 | |
| AUTORXJP | 2026-09-03 13:26:22 | 43.27003 | 4.85064 | 173° | 35km/h | 7917m | -5.0m/s | -20.3°C | 9.6% | 388.0hPa | 0V | 00:00:00 | 00:00:00 | 00:00:00 | |
| AUTORXJP | 2026-09-03 13:25:51 | 43.27293 | 4.85052 | 182° | 38km/h | 8097m | -4.4m/s | -21.8°C | 9.8% | 378.6hPa | 0V | 00:00:00 | 00:00:00 | 00:00:00 | |
| AUTORXJP | 2026-09-03 13:25:20 | 43.27594 | 4.85089 | 191° | 44km/h | 8281m | -4.9m/s | -23.3°C | 10.1% | 369.2hPa | 0V | 00:00:00 | 00:00:00 | 00:00:00 | |
| AUTORXJP | 2026-09-03 13:24:49 | 43.27888 | 4.85231 | 185° | 29km/h | 8471m | -6.2m/s | -24.9°C | 10.6% | 359.8hPa | 0V | 00:00:00 | 00:00:00 | 00:00:00 | |
| AUTORXJP | 2026-09-03 13:24:18 | 43.28149 | 4.85376 | 204° | 27km/h | 8662m | -5.3m/s | -26.5°C | 11.6% | 350.3hPa | 0V | 00:00:00 | 00:00:00 | 00:00:00 | |
| AUTORXJP | 2026-09-03 13:23:46 | 43.28416 | 4.85511 | 203° | 40km/h | 8862m | -6.8m/s | -28.2°C | 12.2% | 340.6hPa | 0V | 00:00:00 | 00:00:00 | 00:00:00 | |
| AUTORXJP | 2026-09-03 13:23:15 | 43.28687 | 4.85635 | 202° | 37km/h | 9061m | -6.3m/s | -30.0°C | 12.7% | 331.3hPa | 0V | 00:00:00 | 00:00:00 | 00:00:00 | |
| AUTORXJP | 2026-09-03 13:22:44 | 43.28964 | 4.85711 | 183° | 33km/h | 9275m | -6.6m/s | -31.7°C | 12.7% | 321.6hPa | 0V | 00:00:00 | 00:00:00 | 00:00:00 | |
| AUTORXJP | 2026-09-03 13:22:13 | 43.29232 | 4.85726 | 186° | 42km/h | 9478m | -5.7m/s | -33.5°C | 12.8% | 312.2hPa | 0V | 00:00:00 | 00:00:00 | 00:00:00 | |
| AUTORXJP | 2026-09-03 13:21:42 | 43.29554 | 4.85747 | 175° | 44km/h | 9688m | -5.3m/s | -35.3°C | 13.5% | 302.8hPa | 0V | 00:00:00 | 00:00:00 | 00:00:00 | |
| AUTORXJP | 2026-09-03 13:21:11 | 43.29880 | 4.85755 | 178° | 46km/h | 9900m | -6.0m/s | -37.0°C | 15.2% | 293.6hPa | 0V | 00:00:00 | 00:00:00 | 00:00:00 | |
| AUTORXJP | 2026-09-03 13:20:40 | 43.30192 | 4.85757 | 172° | 37km/h | 10122m | -5.2m/s | -38.9°C | 16.3% | 284.4hPa | 0V | 00:00:00 | 00:00:00 | 00:00:00 | |
| AUTORXJP | 2026-09-03 13:20:09 | 43.30551 | 4.85708 | 183° | 42km/h | 10343m | -6.7m/s | -41.0°C | 18.2% | 275.0hPa | 0V | 00:00:00 | 00:00:00 | 00:00:00 | |
| AUTORXJP | 2026-09-03 13:19:38 | 43.30868 | 4.85605 | 171° | 51km/h | 10572m | -6.5m/s | -43.2°C | 20.2% | 265.7hPa | 0V | 00:00:00 | 00:00:00 | 00:00:00 | |
| AUTORXJP | 2026-09-03 13:19:07 | 43.31255 | 4.85470 | 171° | 58km/h | 10813m | -7.5m/s | -45.3°C | 20.3% | 256.5hPa | 0V | 00:00:00 | 00:00:00 | 00:00:00 | |
| AUTORXJP | 2026-09-03 13:18:36 | 43.31680 | 4.85305 | 164° | 58km/h | 11046m | -6.3m/s | -47.2°C | 21.1% | 247.8hPa | 0V | 00:00:00 | 00:00:00 | 00:00:00 | |
| AUTORXJP | 2026-09-03 13:18:05 | 43.32179 | 4.85112 | 162° | 73km/h | 11288m | -6.3m/s | -49.3°C | 21.5% | 238.7hPa | 0V | 00:00:00 | 00:00:00 | 00:00:00 | |
| AUTORXJP | 2026-09-03 13:17:34 | 43.32720 | 4.84858 | 160° | 75km/h | 11503m | -4.6m/s | -51.2°C | 22.2% | 230.9hPa | 0V | 00:00:00 | 00:00:00 | 00:00:00 | |
| AUTORXJP | 2026-09-03 13:17:02 | 43.33322 | 4.84619 | 167° | 77km/h | 11741m | -7.2m/s | -53.0°C | 22.4% | 222.5hPa | 0V | 00:00:00 | 00:00:00 | 00:00:00 | |
| AUTORXJP | 2026-09-03 13:16:31 | 43.33881 | 4.84421 | 168° | 69km/h | 11982m | -7.3m/s | -55.0°C | 22.2% | 214.2hPa | 0V | 00:00:00 | 00:00:00 | 00:00:00 | |
| AUTORXJP | 2026-09-03 13:16:00 | 43.34486 | 4.84180 | 154° | 73km/h | 12232m | -5.9m/s | -56.3°C | 23.5% | 205.9hPa | 0V | 00:00:00 | 00:00:00 | 00:00:00 | |
| AUTORXJP | 2026-09-03 13:15:29 | 43.34979 | 4.83829 | 145° | 71km/h | 12468m | -6.7m/s | -57.9°C | 25.9% | 198.3hPa | 0V | 00:00:00 | 00:00:00 | 00:00:00 | |
| AUTORXJP | 2026-09-03 13:14:58 | 43.35463 | 4.83333 | 141° | 77km/h | 12700m | -6.5m/s | -59.4°C | 26.1% | 191.0hPa | 0V | 00:00:00 | 00:00:00 | 00:00:00 | |
| AUTORXJP | 2026-09-03 13:14:27 | 43.35968 | 4.82754 | 142° | 84km/h | 12941m | -7.6m/s | -61.2°C | 23.2% | 183.7hPa | 0V | 00:00:00 | 00:00:00 | 00:00:00 | |
| AUTORXJP | 2026-09-03 13:13:56 | 43.36516 | 4.82116 | 137° | 99km/h | 13195m | -6.7m/s | -61.8°C | 20.2% | 176.3hPa | 0V | 00:00:00 | 00:00:00 | 00:00:00 | |
| AUTORXJP | 2026-09-03 13:13:25 | 43.37107 | 4.81375 | 137° | 110km/h | 13441m | -7.5m/s | -61.4°C | 16.0% | 169.2hPa | 0V | 00:00:00 | 00:00:00 | 00:00:00 | |
| AUTORXJP | 2026-09-03 13:12:54 | 43.37732 | 4.80681 | 148° | 102km/h | 13693m | -7.9m/s | -62.7°C | 12.2% | 162.5hPa | 0V | 00:00:00 | 00:00:00 | 00:00:00 | |
| AUTORXJP | 2026-09-03 13:12:23 | 43.38343 | 4.80094 | 141° | 82km/h | 13956m | -6.3m/s | -62.2°C | 8.5% | 155.7hPa | 0V | 00:00:00 | 00:00:00 | 00:00:00 | |
| AUTORXJP | 2026-09-03 13:11:52 | 43.38780 | 4.79482 | 131° | 82km/h | 14225m | -6.9m/s | -63.0°C | 5.5% | 148.9hPa | 0V | 00:00:00 | 00:00:00 | 00:00:00 | |
| AUTORXJP | 2026-09-03 13:11:20 | 43.39205 | 4.78839 | 122° | 73km/h | 14502m | -3.5m/s | -63.5°C | 3.2% | 142.2hPa | 0V | 00:00:00 | 00:00:00 | 00:00:00 | |
| AUTORXJP | 2026-09-03 13:10:49 | 43.39580 | 4.78331 | 127° | 62km/h | 14777m | -8.1m/s | -63.6°C | 1.5% | 135.9hPa | 0V | 00:00:00 | 00:00:00 | 00:00:00 | |
| AUTORXJP | 2026-09-03 13:10:18 | 43.39853 | 4.77761 | 126° | 69km/h | 15064m | -7.3m/s | -64.3°C | 0.7% | 129.6hPa | 0V | 00:00:00 | 00:00:00 | 00:00:00 | |
| AUTORXJP | 2026-09-03 13:09:47 | 43.40190 | 4.77264 | 121° | 53km/h | 15370m | -9.1m/s | -64.7°C | 0.2% | 123.2hPa | 0V | 00:00:00 | 00:00:00 | 00:00:00 | |
| AUTORXJP | 2026-09-03 13:09:16 | 43.40479 | 4.76734 | 133° | 62km/h | 15664m | -9.2m/s | -63.7°C | 0.0% | 117.3hPa | 0V | 00:00:00 | 00:00:00 | 00:00:00 | |
| AUTORXJP | 2026-09-03 13:08:14 | 43.41100 | 4.76029 | 150° | 46km/h | 16250m | -8.1m/s | -62.4°C | 0.0% | 106.5hPa | 0V | 00:00:00 | 00:00:00 | 00:00:00 | |
| AUTORXJP | 2026-09-03 13:07:43 | 43.41334 | 4.75772 | 133° | 31km/h | 16549m | -9.0m/s | -60.9°C | 0.0% | 101.4hPa | 0V | 00:00:00 | 00:00:00 | 00:00:00 | |
| AUTORXJP | 2026-09-03 13:07:12 | 43.41470 | 4.75507 | 128° | 47km/h | 16868m | -10.5m/s | -61.9°C | 0.0% | 96.2hPa | 0V | 00:00:00 | 00:00:00 | 00:00:00 | |
| AUTORXJP | 2026-09-03 13:06:41 | 43.41689 | 4.75122 | 133° | 55km/h | 17201m | -9.8m/s | -60.9°C | 0.0% | 91.0hPa | 0V | 00:00:00 | 00:00:00 | 00:00:00 | |
| AUTORXJP | 2026-09-03 13:06:10 | 43.41970 | 4.74823 | 169° | 42km/h | 17551m | -9.8m/s | -60.5°C | 0.0% | 86.0hPa | 0V | 00:00:00 | 00:00:00 | 00:00:00 | |
| AUTORXJP | 2026-09-03 13:05:08 | 43.42226 | 4.74581 | 94° | 26km/h | 18295m | -9.4m/s | -60.2°C | 0.0% | 76.2hPa | 0V | 00:00:00 | 00:00:00 | 00:00:00 | |
| AUTORXJP | 2026-09-03 13:04:37 | 43.42336 | 4.74431 | 135° | 24km/h | 18673m | -15.3m/s | -59.4°C | 0.0% | 71.5hPa | 0V | 00:00:00 | 00:00:00 | 00:00:00 | |
| AUTORXJP | 2026-09-03 13:04:05 | 43.42501 | 4.74306 | 131° | 15km/h | 19187m | -22.0m/s | -58.1°C | 0.0% | 65.8hPa | 0V | 00:00:00 | 00:00:00 | 00:00:00 | |
| AUTORXJP | 2026-09-03 13:03:34 | 43.42525 | 4.74250 | 0° | 18km/h | 19804m | -18.2m/s | -56.1°C | 0.0% | 59.5hPa | 0V | 00:00:00 | 00:00:00 | 00:00:00 | |
| AUTORXJP | 2026-09-03 13:03:03 | 43.42511 | 4.74176 | 63° | 13km/h | 20421m | -24.0m/s | -56.1°C | 0.0% | 53.7hPa | 0V | 00:00:00 | 00:00:00 | 00:00:00 | |
| AUTORXJP | 2026-09-03 13:02:32 | 43.42478 | 4.74125 | 358° | 4km/h | 21121m | -20.8m/s | -55.4°C | 0.0% | 48.0hPa | 0V | 00:00:00 | 00:00:00 | 00:00:00 | |
| AUTORXJP | 2026-09-03 13:02:01 | 43.42480 | 4.74026 | 254° | 2km/h | 21802m | -20.8m/s | -55.1°C | 0.0% | 42.9hPa | 0V | 00:00:00 | 00:00:00 | 00:00:00 | |
| AUTORXJP | 2026-09-03 13:01:30 | 43.42514 | 4.74019 | 160° | 11km/h | 22491m | -21.5m/s | -53.7°C | 0.0% | 38.3hPa | 0V | 00:00:00 | 00:00:00 | 00:00:00 | |
| AUTORXJP | 2026-09-03 13:00:59 | 43.42577 | 4.74023 | 55° | 9km/h | 23228m | -23.8m/s | -52.2°C | 0.0% | 34.0hPa | 0V | 00:00:00 | 00:00:00 | 00:00:00 | |
| AUTORXJP | 2026-09-03 13:00:28 | 43.42570 | 4.74073 | 291° | 16km/h | 24077m | -25.7m/s | -51.8°C | 0.0% | 29.6hPa | 0V | 00:00:00 | 00:00:00 | 00:00:00 | |
| AUTORXJP | 2026-09-03 12:59:57 | 43.42520 | 4.74104 | 306° | 16km/h | 25037m | -26.9m/s | -51.6°C | 0.0% | 25.2hPa | 0V | 00:00:00 | 00:00:00 | 00:00:00 | |
| AUTORXJP | 2026-09-03 12:59:26 | 43.42481 | 4.74103 | 37° | 2km/h | 25688m | -27.9m/s | -50.2°C | 0.0% | 22.6hPa | 0V | 00:00:00 | 00:00:00 | 00:00:00 | |
| AUTORXJP | 2026-09-03 12:58:55 | 43.42455 | 4.74079 | 141° | 5km/h | 26590m | -26.9m/s | -50.8°C | 0.0% | 19.4hPa | 0V | 00:00:00 | 00:00:00 | 00:00:00 | |
| AUTORXJP | 2026-09-03 12:58:24 | 43.42480 | 4.74061 | 285° | 0km/h | 27517m | -28.9m/s | -47.7°C | 0.0% | 16.6hPa | 0V | 00:00:00 | 00:00:00 | 00:00:00 | |
| AUTORXJP | 2026-09-03 12:57:53 | 43.42444 | 4.74026 | 299° | 15km/h | 28552m | -30.9m/s | -46.0°C | 0.0% | 13.9hPa | 0V | 00:00:00 | 00:00:00 | 00:00:00 | |
| AUTORXJP | 2026-09-03 12:57:21 | 43.42399 | 4.74045 | 160° | 9km/h | 29573m | -41.1m/s | -43.4°C | 0.0% | 11.6hPa | 0V | 00:00:00 | 00:00:00 | 00:00:00 | |
| AUTORXJP | 2026-09-03 12:56:50 | 43.42478 | 4.74162 | 199° | 18km/h | 30335m | 5.0m/s | -42.3°C | 0.0% | 10.2hPa | 0V | 00:00:00 | 00:00:00 | 00:00:00 | |
| AUTORXJP | 2026-09-03 12:56:19 | 43.42575 | 4.74310 | 211° | 11km/h | 30151m | 7.5m/s | -42.5°C | 0.0% | 10.5hPa | 0V | 00:00:00 | 00:00:00 | 00:00:00 | |
| AUTORXJP | 2026-09-03 12:55:48 | 43.42695 | 4.74389 | 165° | 7km/h | 29976m | 5.1m/s | -42.6°C | 0.0% | 10.9hPa | 0V | 00:00:00 | 00:00:00 | 00:00:00 | |
| AUTORXJP | 2026-09-03 12:55:17 | 43.42813 | 4.74400 | 262° | 16km/h | 29791m | 6.9m/s | -43.0°C | 0.0% | 11.2hPa | 0V | 00:00:00 | 00:00:00 | 00:00:00 | |
| AUTORXJP | 2026-09-03 12:54:46 | 43.42875 | 4.74455 | 236° | 13km/h | 29611m | 4.1m/s | -43.7°C | 0.0% | 11.6hPa | 0V | 00:00:00 | 00:00:00 | 00:00:00 | |
| AUTORXJP | 2026-09-03 12:54:15 | 43.42834 | 4.74453 | 329° | 9km/h | 29427m | 5.5m/s | -45.3°C | 0.0% | 12.0hPa | 0V | 00:00:00 | 00:00:00 | 00:00:00 | |
| AUTORXJP | 2026-09-03 12:53:44 | 43.42771 | 4.74444 | 337° | 0km/h | 29251m | 5.8m/s | -45.7°C | 0.0% | 12.3hPa | 0V | 00:00:00 | 00:00:00 | 00:00:00 | |
| AUTORXJP | 2026-09-03 12:53:13 | 43.42721 | 4.74451 | 28° | 16km/h | 29075m | 5.5m/s | -46.1°C | 0.0% | 12.7hPa | 0V | 00:00:00 | 00:00:00 | 00:00:00 | |
| AUTORXJP | 2026-09-03 12:52:42 | 43.42649 | 4.74512 | 331° | 29km/h | 28896m | 7.0m/s | -46.7°C | 0.0% | 13.1hPa | 0V | 00:00:00 | 00:00:00 | 00:00:00 | |
| AUTORXJP | 2026-09-03 12:52:11 | 43.42586 | 4.74608 | 319° | 22km/h | 28722m | 6.2m/s | -46.3°C | 0.0% | 13.5hPa | 0V | 00:00:00 | 00:00:00 | 00:00:00 | |
| AUTORXJP | 2026-09-03 12:51:40 | 43.42596 | 4.74665 | 98° | 15km/h | 28539m | 6.6m/s | -46.5°C | 0.0% | 14.0hPa | 0V | 00:00:00 | 00:00:00 | 00:00:00 | |
| AUTORXJP | 2026-09-03 12:51:09 | 43.42537 | 4.74566 | 40° | 18km/h | 28358m | 4.7m/s | -47.0°C | 0.0% | 14.4hPa | 0V | 00:00:00 | 00:00:00 | 00:00:00 | |
| AUTORXJP | 2026-09-03 12:50:37 | 43.42426 | 4.74498 | 314° | 5km/h | 28173m | 7.2m/s | -47.4°C | 0.0% | 14.9hPa | 0V | 00:00:00 | 00:00:00 | 00:00:00 | |
| AUTORXJP | 2026-09-03 12:50:06 | 43.42426 | 4.74531 | 187° | 13km/h | 27989m | 5.0m/s | -47.5°C | 0.0% | 15.4hPa | 0V | 00:00:00 | 00:00:00 | 00:00:00 | |
| AUTORXJP | 2026-09-03 12:49:35 | 43.42462 | 4.74484 | 90° | 0km/h | 27813m | 8.3m/s | -47.5°C | 0.0% | 15.8hPa | 0V | 00:00:00 | 00:00:00 | 00:00:00 | |
| AUTORXJP | 2026-09-03 12:49:04 | 43.42428 | 4.74449 | 227° | 2km/h | 27628m | 5.8m/s | -47.8°C | 0.0% | 16.4hPa | 0V | 00:00:00 | 00:00:00 | 00:00:00 | |
| AUTORXJP | 2026-09-03 12:48:33 | 43.42456 | 4.74498 | 161° | 9km/h | 27448m | 6.2m/s | -47.6°C | 0.0% | 16.9hPa | 0V | 00:00:00 | 00:00:00 | 00:00:00 | |
| AUTORXJP | 2026-09-03 12:48:02 | 43.42434 | 4.74434 | 55° | 13km/h | 27270m | 4.3m/s | -48.4°C | 0.0% | 17.4hPa | 0V | 00:00:00 | 00:00:00 | 00:00:00 | |
| AUTORXJP | 2026-09-03 12:47:31 | 43.42456 | 4.74467 | 47° | 20km/h | 27096m | 3.9m/s | -49.1°C | 0.0% | 17.9hPa | 0V | 00:00:00 | 00:00:00 | 00:00:00 | |
| AUTORXJP | 2026-09-03 12:47:00 | 43.42481 | 4.74419 | 116° | 16km/h | 26921m | 6.2m/s | -49.1°C | 0.0% | 18.4hPa | 0V | 00:00:00 | 00:00:00 | 00:00:00 | |
| AUTORXJP | 2026-09-03 12:46:29 | 43.42500 | 4.74330 | 136° | 9km/h | 26744m | 6.0m/s | -49.6°C | 0.0% | 19.0hPa | 0V | 00:00:00 | 00:00:00 | 00:00:00 | |
| AUTORXJP | 2026-09-03 12:45:58 | 43.42548 | 4.74254 | 146° | 9km/h | 26564m | 6.6m/s | -49.9°C | 0.0% | 19.6hPa | 0V | 00:00:00 | 00:00:00 | 00:00:00 | |
| AUTORXJP | 2026-09-03 12:45:27 | 43.42602 | 4.74174 | 122° | 11km/h | 26378m | 5.2m/s | -49.7°C | 0.0% | 20.2hPa | 0V | 00:00:00 | 00:00:00 | 00:00:00 | |
| AUTORXJP | 2026-09-03 12:44:56 | 43.42591 | 4.74111 | 51° | 20km/h | 26201m | 5.7m/s | -49.6°C | 0.0% | 20.8hPa | 0V | 00:00:00 | 00:00:00 | 00:00:00 | |
| AUTORXJP | 2026-09-03 12:44:25 | 43.42478 | 4.73984 | 17° | 26km/h | 26009m | 5.6m/s | -48.9°C | 0.0% | 21.5hPa | 0V | 00:00:00 | 00:00:00 | 00:00:00 | |
| AUTORXJP | 2026-09-03 12:43:53 | 43.42339 | 4.74016 | 183° | 9km/h | 25824m | 5.5m/s | -49.1°C | 0.0% | 22.2hPa | 0V | 00:00:00 | 00:00:00 | 00:00:00 | |
| AUTORXJP | 2026-09-03 12:43:22 | 43.42316 | 4.74075 | 202° | 18km/h | 25644m | 4.6m/s | -49.2°C | 0.0% | 22.8hPa | 0V | 00:00:00 | 00:00:00 | 00:00:00 | |
| AUTORXJP | 2026-09-03 12:42:51 | 43.42319 | 4.74045 | 254° | 2km/h | 25465m | 5.1m/s | -49.7°C | 0.0% | 23.5hPa | 0V | 00:00:00 | 00:00:00 | 00:00:00 | |
| AUTORXJP | 2026-09-03 12:42:20 | 43.42266 | 4.73997 | 25° | 7km/h | 25292m | 5.7m/s | -50.7°C | 0.0% | 24.2hPa | 0V | 00:00:00 | 00:00:00 | 00:00:00 | |
| AUTORXJP | 2026-09-03 12:41:49 | 43.42175 | 4.74015 | 303° | 15km/h | 25116m | 5.0m/s | -51.0°C | 0.0% | 24.9hPa | 0V | 00:00:00 | 00:00:00 | 00:00:00 | |
| AUTORXJP | 2026-09-03 12:40:47 | 43.42053 | 4.74203 | 215° | 11km/h | 24767m | 4.5m/s | -50.6°C | 0.0% | 26.4hPa | 0V | 00:00:00 | 00:00:00 | 00:00:00 | |
| AUTORXJP | 2026-09-03 12:40:16 | 43.42036 | 4.74261 | 217° | 9km/h | 24593m | 6.2m/s | -50.6°C | 0.0% | 27.2hPa | 0V | 00:00:00 | 00:00:00 | 00:00:00 | |
| AUTORXJP | 2026-09-03 12:39:14 | 43.41976 | 4.74281 | 344° | 20km/h | 24247m | 7.1m/s | -51.4°C | 0.0% | 28.8hPa | 0V | 00:00:00 | 00:00:00 | 00:00:00 | |
| AUTORXJP | 2026-09-03 12:38:43 | 43.41878 | 4.74411 | 311° | 26km/h | 24077m | 4.1m/s | -51.0°C | 0.0% | 29.6hPa | 0V | 00:00:00 | 00:00:00 | 00:00:00 | |
| AUTORXJP | 2026-09-03 12:38:12 | 43.41872 | 4.74558 | 262° | 16km/h | 23905m | 6.8m/s | -50.9°C | 0.0% | 30.5hPa | 0V | 00:00:00 | 00:00:00 | 00:00:00 | |
| AUTORXJP | 2026-09-03 12:37:40 | 43.41879 | 4.74686 | 251° | 7km/h | 23738m | 7.1m/s | -50.6°C | 0.0% | 31.3hPa | 0V | 00:00:00 | 00:00:00 | 00:00:00 | |
| AUTORXJP | 2026-09-03 12:37:09 | 43.41918 | 4.74801 | 183° | 16km/h | 23571m | 7.0m/s | -50.4°C | 0.0% | 32.1hPa | 0V | 00:00:00 | 00:00:00 | 00:00:00 | |
| AUTORXJP | 2026-09-03 12:36:38 | 43.42005 | 4.74763 | 173° | 7km/h | 23410m | 6.4m/s | -50.7°C | 0.0% | 33.0hPa | 0V | 00:00:00 | 00:00:00 | 00:00:00 | |
| AUTORXJP | 2026-09-03 12:36:07 | 43.42017 | 4.74698 | 167° | 7km/h | 23236m | 5.3m/s | -52.8°C | 0.0% | 34.0hPa | 0V | 00:00:00 | 00:00:00 | 00:00:00 | |
| AUTORXJP | 2026-09-03 12:35:36 | 43.41963 | 4.74650 | 272° | 4km/h | 23069m | 6.2m/s | -53.6°C | 0.0% | 34.9hPa | 0V | 00:00:00 | 00:00:00 | 00:00:00 | |
| AUTORXJP | 2026-09-03 12:35:05 | 43.42019 | 4.74711 | 211° | 13km/h | 22902m | 5.3m/s | -53.3°C | 0.0% | 35.9hPa | 0V | 00:00:00 | 00:00:00 | 00:00:00 | |
| AUTORXJP | 2026-09-03 12:34:34 | 43.42120 | 4.74760 | 174° | 13km/h | 22743m | 6.9m/s | -53.0°C | 0.0% | 36.8hPa | 0V | 00:00:00 | 00:00:00 | 00:00:00 | |
| AUTORXJP | 2026-09-03 12:34:03 | 43.42229 | 4.74720 | 155° | 13km/h | 22581m | 4.4m/s | -53.7°C | 0.0% | 37.8hPa | 0V | 00:00:00 | 00:00:00 | 00:00:00 | |
| AUTORXJP | 2026-09-03 12:33:32 | 43.42275 | 4.74686 | 41° | 9km/h | 22415m | 5.8m/s | -54.2°C | 0.0% | 38.9hPa | 0V | 00:00:00 | 00:00:00 | 00:00:00 | |
| AUTORXJP | 2026-09-03 12:33:01 | 43.42258 | 4.74695 | 271° | 15km/h | 22249m | 6.0m/s | -54.8°C | 0.0% | 39.9hPa | 0V | 00:00:00 | 00:00:00 | 00:00:00 | |
| AUTORXJP | 2026-09-03 12:32:30 | 43.42284 | 4.74776 | 244° | 11km/h | 22084m | 3.9m/s | -54.4°C | 0.0% | 41.0hPa | 0V | 00:00:00 | 00:00:00 | 00:00:00 | |
| AUTORXJP | 2026-09-03 12:31:59 | 43.42344 | 4.74761 | 251° | 4km/h | 21919m | 5.7m/s | -54.3°C | 0.0% | 42.1hPa | 0V | 00:00:00 | 00:00:00 | 00:00:00 | |
| AUTORXJP | 2026-09-03 12:31:27 | 43.42371 | 4.74765 | 142° | 13km/h | 21764m | 5.5m/s | -55.3°C | 0.0% | 43.2hPa | 0V | 00:00:00 | 00:00:00 | 00:00:00 | |
| AUTORXJP | 2026-09-03 12:30:56 | 43.42422 | 4.74589 | 101° | 22km/h | 21611m | 4.6m/s | -55.3°C | 0.0% | 44.3hPa | 0V | 00:00:00 | 00:00:00 | 00:00:00 | |
| AUTORXJP | 2026-09-03 12:30:25 | 43.42408 | 4.74447 | 59° | 13km/h | 21457m | 5.6m/s | -55.3°C | 0.0% | 45.5hPa | 0V | 00:00:00 | 00:00:00 | 00:00:00 | |
| AUTORXJP | 2026-09-03 12:29:54 | 43.42352 | 4.74352 | 0° | 11km/h | 21296m | 4.8m/s | -55.9°C | 0.0% | 46.7hPa | 0V | 00:00:00 | 00:00:00 | 00:00:00 | |
| AUTORXJP | 2026-09-03 12:29:23 | 43.42321 | 4.74343 | 330° | 5km/h | 21133m | 4.9m/s | -55.6°C | 0.0% | 47.9hPa | 0V | 00:00:00 | 00:00:00 | 00:00:00 | |
| AUTORXJP | 2026-09-03 12:28:52 | 43.42279 | 4.74386 | 32° | 0km/h | 20967m | 6.2m/s | -55.8°C | 0.0% | 49.2hPa | 0V | 00:00:00 | 00:00:00 | 00:00:00 | |
| AUTORXJP | 2026-09-03 12:28:21 | 43.42277 | 4.74396 | 58° | 4km/h | 20810m | 5.9m/s | -55.4°C | 0.0% | 50.5hPa | 0V | 00:00:00 | 00:00:00 | 00:00:00 | |
| AUTORXJP | 2026-09-03 12:27:50 | 43.42272 | 4.74266 | 180° | 0km/h | 20645m | 5.5m/s | -56.0°C | 0.0% | 51.9hPa | 0V | 00:00:00 | 00:00:00 | 00:00:00 | |
| AUTORXJP | 2026-09-03 12:27:19 | 43.42254 | 4.74155 | 85° | 5km/h | 20490m | 6.0m/s | -56.3°C | 0.0% | 53.2hPa | 0V | 00:00:00 | 00:00:00 | 00:00:00 | |
| AUTORXJP | 2026-09-03 12:26:48 | 43.42281 | 4.74126 | 197° | 13km/h | 20328m | 5.1m/s | -57.3°C | 0.0% | 54.6hPa | 0V | 00:00:00 | 00:00:00 | 00:00:00 | |
| AUTORXJP | 2026-09-03 12:26:17 | 43.42384 | 4.74068 | 166° | 9km/h | 20171m | 6.5m/s | -57.3°C | 0.0% | 56.1hPa | 0V | 00:00:00 | 00:00:00 | 00:00:00 | |
| AUTORXJP | 2026-09-03 12:25:46 | 43.42382 | 4.74024 | 82° | 11km/h | 20015m | 6.2m/s | -56.7°C | 0.0% | 57.5hPa | 0V | 00:00:00 | 00:00:00 | 00:00:00 | |
| AUTORXJP | 2026-09-03 12:25:15 | 43.42296 | 4.74066 | 3° | 16km/h | 19855m | 4.4m/s | -56.6°C | 0.0% | 59.0hPa | 0V | 00:00:00 | 00:00:00 | 00:00:00 | |
| AUTORXJP | 2026-09-03 12:24:44 | 43.42235 | 4.74189 | 302° | 13km/h | 19703m | 5.5m/s | -57.0°C | 0.0% | 60.5hPa | 0V | 00:00:00 | 00:00:00 | 00:00:00 | |
| AUTORXJP | 2026-09-03 12:24:13 | 43.42325 | 4.74253 | 124° | 16km/h | 19549m | 5.5m/s | -56.3°C | 0.0% | 62.0hPa | 0V | 00:00:00 | 00:00:00 | 00:00:00 | |
| AUTORXJP | 2026-09-03 12:23:41 | 43.42466 | 4.74121 | 123° | 29km/h | 19386m | 4.0m/s | -57.9°C | 0.0% | 63.7hPa | 0V | 00:00:00 | 00:00:00 | 00:00:00 | |
| AUTORXJP | 2026-09-03 12:23:10 | 43.42549 | 4.73883 | 104° | 27km/h | 19243m | 4.5m/s | -58.3°C | 0.0% | 65.2hPa | 0V | 00:00:00 | 00:00:00 | 00:00:00 | |
| AUTORXJP | 2026-09-03 12:22:39 | 43.42650 | 4.73750 | 157° | 11km/h | 19090m | 2.9m/s | -57.4°C | 0.0% | 66.8hPa | 0V | 00:00:00 | 00:00:00 | 00:00:00 | |
| AUTORXJP | 2026-09-03 12:22:08 | 43.42807 | 4.73713 | 176° | 31km/h | 18941m | 5.5m/s | -58.0°C | 0.0% | 68.5hPa | 0V | 00:00:00 | 00:00:00 | 00:00:00 | |
| AUTORXJP | 2026-09-03 12:21:37 | 43.43019 | 4.73552 | 138° | 29km/h | 18799m | 3.7m/s | -59.1°C | 0.0% | 70.1hPa | 0V | 00:00:00 | 00:00:00 | 00:00:00 | |
| AUTORXJP | 2026-09-03 12:21:06 | 43.43187 | 4.73428 | 190° | 27km/h | 18653m | 4.8m/s | -60.2°C | 0.0% | 71.8hPa | 0V | 00:00:00 | 00:00:00 | 00:00:00 | |
| AUTORXJP | 2026-09-03 12:20:35 | 43.43384 | 4.73362 | 159° | 26km/h | 18503m | 5.5m/s | -60.5°C | 0.0% | 73.6hPa | 0V | 00:00:00 | 00:00:00 | 00:00:00 | |
| AUTORXJP | 2026-09-03 12:20:04 | 43.43490 | 4.73215 | 128° | 15km/h | 18351m | 5.1m/s | -60.3°C | 0.0% | 75.5hPa | 0V | 00:00:00 | 00:00:00 | 00:00:00 | |
| AUTORXJP | 2026-09-03 12:19:33 | 43.43477 | 4.73065 | 51° | 11km/h | 18198m | 5.1m/s | -59.5°C | 0.0% | 77.4hPa | 0V | 00:00:00 | 00:00:00 | 00:00:00 | |
| AUTORXJP | 2026-09-03 12:19:02 | 43.43451 | 4.72929 | 86° | 15km/h | 18048m | 3.5m/s | -58.3°C | 0.1% | 79.3hPa | 0V | 00:00:00 | 00:00:00 | 00:00:00 | |
| AUTORXJP | 2026-09-03 12:18:31 | 43.43516 | 4.72850 | 160° | 20km/h | 17903m | 5.0m/s | -59.3°C | 0.2% | 81.2hPa | 0V | 00:00:00 | 00:00:00 | 00:00:00 | |
| AUTORXJP | 2026-09-03 12:18:00 | 43.43735 | 4.72804 | 179° | 40km/h | 17763m | 3.3m/s | -59.6°C | 0.4% | 83.1hPa | 0V | 00:00:00 | 00:00:00 | 00:00:00 | |
| AUTORXJP | 2026-09-03 12:17:28 | 43.44045 | 4.72740 | 162° | 44km/h | 17616m | 5.2m/s | -59.6°C | 0.4% | 85.1hPa | 0V | 00:00:00 | 00:00:00 | 00:00:00 | |
| AUTORXJP | 2026-09-03 12:16:58 | 43.44377 | 4.72573 | 151° | 46km/h | 17469m | 5.2m/s | -60.4°C | 0.6% | 87.2hPa | 0V | 00:00:00 | 00:00:00 | 00:00:00 | |
| AUTORXJP | 2026-09-03 12:16:26 | 43.44685 | 4.72234 | 129° | 51km/h | 17311m | 5.3m/s | -60.1°C | 0.7% | 89.5hPa | 0V | 00:00:00 | 00:00:00 | 00:00:00 | |
| AUTORXJP | 2026-09-03 12:15:55 | 43.44894 | 4.71742 | 113° | 53km/h | 17157m | 5.7m/s | -60.4°C | 1.0% | 91.7hPa | 0V | 00:00:00 | 00:00:00 | 00:00:00 | |
| AUTORXJP | 2026-09-03 12:15:24 | 43.45075 | 4.71263 | 117° | 46km/h | 17004m | 5.9m/s | -59.8°C | 1.4% | 94.1hPa | 0V | 00:00:00 | 00:00:00 | 00:00:00 | |
| AUTORXJP | 2026-09-03 12:14:53 | 43.45278 | 4.70863 | 118° | 53km/h | 16858m | 3.3m/s | -59.7°C | 1.7% | 96.3hPa | 0V | 00:00:00 | 00:00:00 | 00:00:00 | |
| AUTORXJP | 2026-09-03 12:14:22 | 43.45427 | 4.70501 | 119° | 33km/h | 16713m | 4.3m/s | -60.2°C | 2.3% | 98.6hPa | 0V | 00:00:00 | 00:00:00 | 00:00:00 | |
| AUTORXJP | 2026-09-03 12:13:51 | 43.45529 | 4.70187 | 117° | 29km/h | 16576m | 3.9m/s | -59.7°C | 3.0% | 100.8hPa | 0V | 00:00:00 | 00:00:00 | 00:00:00 |